Time;durP1;ratioP1;P1;durP2;ratioP2;P2;SDS_P1;SDS_P2;PMS_P1;PMS_P2;Temp;Humidity;BMP_temperature;BMP_pressure;BME280_temperature;BME280_humidity;BME280_pressure;Samples;Min_cycle;Max_cycle;Signal;HPM_P1;HPM_P2
2023/11/29 00:01:11;;;;;;;1.02;0.28;;;;;;;8.75;25.68;97110.22;5029891;28;20476;-69
2023/11/29 00:03:37;;;;;;;1.02;0.30;;;;;;;8.39;26.86;97077.78;5028958;28;20067;-69
2023/11/29 00:06:03;;;;;;;0.30;0.15;;;;;;;8.58;24.35;97115.47;5024658;28;20037;-69
2023/11/29 00:08:31;;;;;;;0.60;0.20;;;;;;;8.50;26.57;97096.56;5026821;28;20021;-69
2023/11/29 00:10:57;;;;;;;0.40;0.20;;;;;;;8.58;28.15;97112.88;5026725;28;20597;-70
2023/11/29 00:13:22;;;;;;;0.63;0.20;;;;;;;8.69;28.83;97118.66;5011202;28;20539;-69
2023/11/29 00:15:48;;;;;;;0.70;0.20;;;;;;;8.72;29.68;97124.31;5018157;28;20405;-69
2023/11/29 00:18:14;;;;;;;0.63;0.20;;;;;;;8.63;26.95;97114.94;5026345;28;20432;-68
2023/11/29 00:20:42;;;;;;;0.52;0.20;;;;;;;8.55;24.93;97087.31;5017521;28;20040;-68
2023/11/29 00:23:10;;;;;;;0.50;0.20;;;;;;;8.61;27.46;97085.81;5027024;28;20710;-70
2023/11/29 00:25:40;;;;;;;0.95;0.30;;;;;;;8.69;27.29;97122.06;5054360;28;20112;-66
2023/11/29 00:28:06;;;;;;;0.38;0.20;;;;;;;8.70;26.61;97115.88;5028006;28;20068;-70
2023/11/29 00:30:36;;;;;;;0.93;0.30;;;;;;;8.64;28.55;97114.00;5024300;28;20112;-69
2023/11/29 00:33:03;;;;;;;0.40;0.15;;;;;;;8.51;27.17;97117.13;5026118;28;20128;-70
2023/11/29 00:35:29;;;;;;;0.57;0.20;;;;;;;8.33;25.27;97106.16;5027388;28;20047;-70
2023/11/29 00:37:57;;;;;;;1.00;0.30;;;;;;;8.25;26.54;97112.13;5014046;28;20033;-69
2023/11/29 00:40:22;;;;;;;1.15;0.30;;;;;;;8.24;26.85;97108.75;5027117;28;20027;-68
2023/11/29 00:42:48;;;;;;;0.57;0.20;;;;;;;7.96;26.51;97054.00;5033096;28;20771;-70
2023/11/29 00:45:13;;;;;;;0.43;0.20;;;;;;;8.57;24.57;97098.28;5008883;28;20380;-69
2023/11/29 00:47:39;;;;;;;0.43;0.20;;;;;;;8.77;25.98;97103.88;5027155;28;20108;-69
2023/11/29 00:50:04;;;;;;;1.40;0.20;;;;;;;8.56;22.26;97050.06;5004800;28;20118;-69
2023/11/29 00:52:30;;;;;;;0.38;0.20;;;;;;;8.91;22.59;97101.53;5021865;28;20504;-69
2023/11/29 00:54:55;;;;;;;1.58;0.17;;;;;;;9.01;23.57;97102.91;5013049;28;20536;-68
2023/11/29 00:57:21;;;;;;;0.50;0.20;;;;;;;8.96;26.48;97100.06;5009992;28;20032;-68
2023/11/29 00:59:47;;;;;;;0.25;0.10;;;;;;;8.82;21.74;97067.09;5015227;28;20434;-68
2023/11/29 01:02:17;;;;;;;0.38;0.17;;;;;;;9.04;22.14;97094.00;5046230;28;20116;-69
2023/11/29 01:04:43;;;;;;;0.98;0.20;;;;;;;9.11;24.77;97113.09;5030990;28;20033;-69
2023/11/29 01:07:08;;;;;;;0.95;0.20;;;;;;;9.13;22.27;97108.53;5033482;28;20090;-69
2023/11/29 01:09:33;;;;;;;0.90;0.22;;;;;;;9.20;24.80;97112.06;5030255;28;20396;-69
2023/11/29 01:11:59;;;;;;;0.50;0.20;;;;;;;8.88;27.39;97102.69;5015183;28;20647;-70
2023/11/29 01:14:27;;;;;;;0.32;0.17;;;;;;;8.69;26.31;97109.09;5014754;28;20428;-69
2023/11/29 01:16:54;;;;;;;0.35;0.28;;;;;;;8.57;26.69;97120.81;5013083;28;20036;-69
2023/11/29 01:19:23;;;;;;;0.17;0.10;;;;;;;8.48;25.41;97122.63;5017197;28;20029;-69
2023/11/29 01:21:49;;;;;;;0.75;0.28;;;;;;;8.38;25.78;97127.19;5031087;28;20033;-69
2023/11/29 01:24:20;;;;;;;0.73;0.30;;;;;;;8.12;25.21;97078.19;5046060;28;20834;-68
2023/11/29 01:26:47;;;;;;;0.40;0.17;;;;;;;8.43;27.84;97112.78;5011911;28;20583;-69
2023/11/29 01:29:15;;;;;;;0.17;0.17;;;;;;;8.62;26.34;97124.50;5030854;28;20078;-69
2023/11/29 01:31:41;;;;;;;0.20;0.10;;;;;;;8.59;26.18;97111.88;5015345;28;20124;-69
2023/11/29 01:34:06;;;;;;;0.60;0.20;;;;;;;8.74;26.20;97106.00;5019532;28;20032;-68
2023/11/29 01:36:31;;;;;;;0.70;0.20;;;;;;;8.70;25.03;97113.28;5021584;28;20040;-69
2023/11/29 01:39:00;;;;;;;0.30;0.20;;;;;;;8.67;24.57;97124.03;5014310;28;20026;-69
2023/11/29 01:41:30;;;;;;;0.45;0.20;;;;;;;8.59;24.58;97113.69;5033521;28;20036;-69
2023/11/29 01:43:57;;;;;;;0.15;0.10;;;;;;;8.56;24.42;97111.41;5028088;28;20021;-68
2023/11/29 01:46:23;;;;;;;0.82;0.20;;;;;;;8.56;24.79;97101.88;5010896;28;20495;-68
2023/11/29 01:48:48;;;;;;;0.77;0.20;;;;;;;8.62;23.74;97101.19;5027342;28;20124;-69
2023/11/29 01:51:14;;;;;;;0.25;0.17;;;;;;;8.58;25.39;97099.09;5032367;28;20448;-69
2023/11/29 01:53:46;;;;;;;0.30;0.10;;;;;;;8.61;23.95;97094.38;5030364;28;20828;-70
2023/11/29 01:56:12;;;;;;;0.57;0.25;;;;;;;8.66;24.40;97097.28;5032089;28;20107;-70
2023/11/29 01:58:39;;;;;;;0.47;0.20;;;;;;;8.67;23.58;97103.28;5034524;28;20498;-69
2023/11/29 02:01:05;;;;;;;0.30;0.20;;;;;;;8.52;25.67;97069.50;5012596;28;20028;-69
2023/11/29 02:03:33;;;;;;;0.45;0.20;;;;;;;8.73;27.43;97105.19;5047049;28;20384;-69
2023/11/29 02:05:58;;;;;;;0.35;0.20;;;;;;;8.65;26.50;97093.09;5015621;28;20031;-69
2023/11/29 02:08:27;;;;;;;0.57;0.20;;;;;;;8.52;24.02;97076.47;5030631;28;20032;-68
2023/11/29 02:10:55;;;;;;;0.90;0.30;;;;;;;8.70;25.11;97095.16;5027383;28;20029;-68
2023/11/29 02:13:20;;;;;;;0.32;0.10;;;;;;;8.68;24.74;97102.31;5013831;28;20034;-68
2023/11/29 02:15:48;;;;;;;0.82;0.20;;;;;;;8.47;25.47;97043.31;5021278;28;20030;-69
2023/11/29 02:18:14;;;;;;;0.85;0.20;;;;;;;8.59;24.03;97088.56;5033819;28;20098;-67
2023/11/29 02:20:39;;;;;;;0.68;0.20;;;;;;;8.63;24.16;97086.44;5022592;28;20033;-68
2023/11/29 02:23:10;;;;;;;0.47;0.28;;;;;;;8.69;27.15;97085.78;5033782;28;20066;-70
2023/11/29 02:25:36;;;;;;;0.32;0.20;;;;;;;8.62;24.93;97090.03;5031784;28;20017;-70
2023/11/29 02:28:04;;;;;;;0.40;0.20;;;;;;;8.64;24.09;97086.28;5035483;28;20029;-69
2023/11/29 02:30:29;;;;;;;0.50;0.20;;;;;;;8.55;25.22;97091.69;5027499;28;20032;-69
2023/11/29 02:32:54;;;;;;;0.30;0.20;;;;;;;8.48;24.91;97091.53;5025134;28;20036;-69
2023/11/29 02:35:22;;;;;;;0.73;0.20;;;;;;;8.43;24.08;97086.88;5015456;28;20033;-68
2023/11/29 02:37:48;;;;;;;0.43;0.20;;;;;;;8.45;24.83;97076.31;5015422;28;20481;-69
2023/11/29 02:40:13;;;;;;;0.40;0.20;;;;;;;8.46;24.83;97083.13;5012342;28;20028;-68
2023/11/29 02:42:41;;;;;;;0.47;0.28;;;;;;;8.38;26.13;97070.19;5014744;28;20064;-69
2023/11/29 02:45:07;;;;;;;0.85;0.30;;;;;;;8.45;24.34;97094.47;5032299;28;20031;-68
2023/11/29 02:47:35;;;;;;;0.35;0.20;;;;;;;8.13;24.15;97052.16;5012830;28;20737;-69
2023/11/29 02:50:02;;;;;;;1.85;0.30;;;;;;;8.49;24.37;97090.56;5027020;28;20037;-68
2023/11/29 02:52:30;;;;;;;0.63;0.20;;;;;;;8.48;24.64;97085.56;5031237;28;20539;-70
2023/11/29 02:54:56;;;;;;;0.30;0.13;;;;;;;8.54;25.21;97088.28;5032333;28;20391;-69
2023/11/29 02:57:23;;;;;;;0.65;0.25;;;;;;;8.49;23.03;97092.34;5030847;28;20025;-69
2023/11/29 02:59:52;;;;;;;0.35;0.20;;;;;;;8.47;23.33;97100.31;5031607;28;20044;-68
2023/11/29 03:02:18;;;;;;;0.77;0.20;;;;;;;8.52;25.90;97097.19;5013611;28;20115;-69
2023/11/29 03:04:43;;;;;;;1.08;0.30;;;;;;;8.50;24.10;97092.19;5032200;28;20033;-69
2023/11/29 03:07:08;;;;;;;0.50;0.30;;;;;;;8.51;24.98;97101.56;5033120;28;20039;-70
2023/11/29 03:09:36;;;;;;;0.20;0.17;;;;;;;8.54;25.74;97109.03;5011837;28;20026;-69
2023/11/29 03:12:02;;;;;;;0.73;0.20;;;;;;;8.56;25.88;97108.81;5027936;28;20065;-68
2023/11/29 03:14:30;;;;;;;0.40;0.20;;;;;;;8.52;27.17;97108.34;5028034;28;20112;-69
2023/11/29 03:16:56;;;;;;;0.63;0.20;;;;;;;8.66;26.77;97124.97;5026451;28;20076;-70
2023/11/29 03:19:21;;;;;;;0.22;0.20;;;;;;;8.81;25.58;97112.13;5012691;28;20029;-69
2023/11/29 03:21:49;;;;;;;0.73;0.20;;;;;;;8.73;27.04;97119.94;5030537;28;20020;-68
2023/11/29 03:24:14;;;;;;;0.45;0.10;;;;;;;8.58;24.50;97120.66;5028083;28;20025;-68
2023/11/29 03:26:43;;;;;;;1.42;0.30;;;;;;;8.48;26.61;97083.78;5028943;28;20560;-68
2023/11/29 03:29:09;;;;;;;0.52;0.25;;;;;;;8.39;25.91;97077.78;5025281;28;20035;-69
2023/11/29 03:31:36;;;;;;;0.63;0.30;;;;;;;8.53;25.20;97109.19;5029275;28;20076;-68
2023/11/29 03:34:04;;;;;;;0.30;0.20;;;;;;;8.39;25.54;97098.50;5021178;28;20025;-69
2023/11/29 03:36:29;;;;;;;0.50;0.20;;;;;;;8.34;24.72;97099.97;5021009;28;20106;-69
2023/11/29 03:38:55;;;;;;;0.13;0.13;;;;;;;8.08;26.21;97073.34;5047335;28;20439;-69
2023/11/29 03:41:23;;;;;;;0.40;0.20;;;;;;;8.12;25.87;97071.22;5025989;28;20102;-69
2023/11/29 03:43:50;;;;;;;0.60;0.20;;;;;;;8.32;26.43;97113.09;5026971;28;20698;-68
2023/11/29 03:46:21;;;;;;;0.70;0.22;;;;;;;8.41;25.19;97116.47;5041056;28;20029;-69
2023/11/29 03:48:46;;;;;;;0.47;0.20;;;;;;;8.40;24.83;97123.44;5027600;28;20021;-68
2023/11/29 03:51:12;;;;;;;1.08;0.32;;;;;;;8.24;25.51;97120.91;5031989;28;20033;-70
2023/11/29 03:53:37;;;;;;;0.60;0.30;;;;;;;8.22;26.84;97133.22;5008494;28;20521;-68
2023/11/29 03:56:07;;;;;;;0.50;0.30;;;;;;;8.06;26.60;97128.88;5011801;28;20039;-69
2023/11/29 03:58:33;;;;;;;0.32;0.15;;;;;;;8.08;25.49;97126.91;5030418;28;20044;-69
2023/11/29 04:01:01;;;;;;;0.70;0.20;;;;;;;8.14;25.28;97135.78;5013182;28;20033;-68
2023/11/29 04:03:26;;;;;;;0.43;0.20;;;;;;;8.12;25.18;97137.75;5011096;28;20047;-68
2023/11/29 04:05:56;;;;;;;0.50;0.30;;;;;;;7.74;24.94;97106.41;5014202;28;20098;-68
2023/11/29 04:08:22;;;;;;;0.22;0.15;;;;;;;8.01;24.23;97142.31;5012082;28;20423;-68
2023/11/29 04:10:47;;;;;;;0.73;0.20;;;;;;;8.01;25.92;97157.84;5028841;28;20021;-70
2023/11/29 04:13:13;;;;;;;0.38;0.20;;;;;;;7.69;26.09;97117.28;5032483;28;20392;-68
2023/11/29 04:15:38;;;;;;;0.60;0.20;;;;;;;7.88;25.33;97154.94;5022247;28;20520;-68
2023/11/29 04:18:04;;;;;;;0.63;0.30;;;;;;;7.77;27.82;97157.84;5036169;28;20025;-68
2023/11/29 04:20:29;;;;;;;0.88;0.22;;;;;;;7.59;28.42;97169.16;5026291;28;20082;-67
2023/11/29 04:22:54;;;;;;;0.82;0.20;;;;;;;7.50;28.95;97167.53;5033115;28;20396;-69
2023/11/29 04:25:20;;;;;;;0.43;0.20;;;;;;;7.53;28.94;97177.56;5011701;28;20392;-68
2023/11/29 04:27:45;;;;;;;1.08;0.20;;;;;;;7.46;29.57;97182.56;5036040;28;20028;-69
2023/11/29 04:30:11;;;;;;;0.77;0.30;;;;;;;7.49;30.47;97182.25;5031081;28;20021;-69
2023/11/29 04:32:37;;;;;;;0.63;0.20;;;;;;;7.07;30.96;97128.88;5013327;28;20025;-69
2023/11/29 04:35:07;;;;;;;0.60;0.20;;;;;;;6.89;30.20;97131.56;5030055;28;20052;-68
2023/11/29 04:37:35;;;;;;;0.70;0.30;;;;;;;7.10;31.14;97182.84;5027985;28;20027;-69
2023/11/29 04:40:04;;;;;;;0.30;0.20;;;;;;;7.07;30.48;97179.75;5051651;28;20109;-68
2023/11/29 04:42:34;;;;;;;0.43;0.10;;;;;;;7.10;31.04;97177.66;5017878;28;20579;-68
2023/11/29 04:45:02;;;;;;;1.65;0.28;;;;;;;6.89;31.70;97126.41;5030182;28;20036;-67
2023/11/29 04:47:29;;;;;;;0.70;0.20;;;;;;;6.89;30.42;97130.75;5030449;28;20082;-68
2023/11/29 04:49:55;;;;;;;0.50;0.20;;;;;;;7.16;30.34;97180.59;5019668;28;20033;-68
2023/11/29 04:52:20;;;;;;;1.17;0.32;;;;;;;7.07;29.32;97177.16;5030515;28;20114;-68
2023/11/29 04:54:46;;;;;;;0.52;0.25;;;;;;;6.90;29.96;97164.19;5033018;28;20665;-68
2023/11/29 04:57:11;;;;;;;0.55;0.25;;;;;;;6.90;29.15;97190.03;5034018;28;20037;-68
2023/11/29 04:59:40;;;;;;;1.27;0.40;;;;;;;6.82;28.94;97186.59;5028318;28;20017;-67
2023/11/29 05:02:09;;;;;;;1.20;0.30;;;;;;;6.62;28.00;97161.00;5031676;28;20081;-67
2023/11/29 05:04:34;;;;;;;0.93;0.30;;;;;;;6.87;28.86;97194.72;5041841;28;20033;-68
2023/11/29 05:07:00;;;;;;;0.77;0.28;;;;;;;6.94;28.17;97180.19;5028051;28;20030;-67
2023/11/29 05:09:25;;;;;;;0.57;0.20;;;;;;;6.66;28.81;97141.69;5047477;28;20024;-68
2023/11/29 05:11:51;;;;;;;1.67;0.40;;;;;;;6.90;28.31;97189.25;5032164;28;20534;-67
2023/11/29 05:14:16;;;;;;;0.90;0.25;;;;;;;6.67;27.30;97156.19;5025659;28;20090;-67
2023/11/29 05:16:41;;;;;;;0.95;0.30;;;;;;;6.75;27.56;97158.00;5031500;28;20041;-67
2023/11/29 05:19:09;;;;;;;0.47;0.22;;;;;;;6.71;26.68;97152.34;5032202;28;20658;-68
2023/11/29 05:21:35;;;;;;;0.88;0.30;;;;;;;6.66;27.02;97146.84;5010244;28;20033;-68
2023/11/29 05:24:00;;;;;;;1.17;0.30;;;;;;;6.90;27.33;97202.16;5017895;28;20550;-68
2023/11/29 05:26:26;;;;;;;0.65;0.30;;;;;;;6.85;26.51;97204.41;5032623;28;20091;-67
2023/11/29 05:28:52;;;;;;;1.98;0.38;;;;;;;6.91;26.94;97211.50;5028679;28;20033;-67
2023/11/29 05:31:20;;;;;;;0.88;0.30;;;;;;;6.85;27.24;97214.72;5031895;28;20028;-67
2023/11/29 05:33:45;;;;;;;1.48;0.30;;;;;;;6.91;26.94;97229.59;5016366;28;20029;-67
2023/11/29 05:36:11;;;;;;;1.83;0.50;;;;;;;6.76;26.90;97229.38;5015155;28;20036;-67
2023/11/29 05:38:36;;;;;;;0.95;0.30;;;;;;;6.72;26.66;97225.50;5025657;28;20074;-68
2023/11/29 05:41:02;;;;;;;0.82;0.30;;;;;;;6.72;27.39;97223.72;5018442;28;20873;-68
2023/11/29 05:43:27;;;;;;;0.82;0.20;;;;;;;6.55;27.86;97183.25;5025761;28;20105;-68
2023/11/29 05:45:55;;;;;;;0.50;0.30;;;;;;;6.78;27.01;97232.63;5035424;28;20115;-69
2023/11/29 05:48:20;;;;;;;2.05;0.30;;;;;;;6.60;26.85;97203.47;5030512;28;20053;-68
2023/11/29 05:50:50;;;;;;;0.40;0.20;;;;;;;6.76;28.24;97242.28;5032011;28;20059;-68
2023/11/29 05:53:20;;;;;;;1.38;0.35;;;;;;;6.77;27.76;97256.00;5013097;28;20048;-69
2023/11/29 05:55:45;;;;;;;0.60;0.28;;;;;;;6.77;28.82;97259.41;5046860;28;20837;-68
2023/11/29 05:58:14;;;;;;;1.02;0.40;;;;;;;6.84;29.15;97262.19;5012847;28;20033;-69
2023/11/29 06:00:42;;;;;;;1.52;0.50;;;;;;;6.73;29.19;97260.69;5025663;28;20021;-68
2023/11/29 06:03:07;;;;;;;1.05;0.40;;;;;;;6.68;30.51;97265.47;5034990;28;20152;-69
2023/11/29 06:05:32;;;;;;;2.08;0.40;;;;;;;6.71;30.99;97268.56;5030627;28;20135;-67
2023/11/29 06:07:58;;;;;;;1.58;0.30;;;;;;;6.82;31.08;97264.13;5019494;28;20037;-68
2023/11/29 06:10:25;;;;;;;1.40;0.40;;;;;;;6.74;30.36;97265.69;5027230;28;21238;-66
2023/11/29 06:12:53;;;;;;;1.15;0.30;;;;;;;6.67;30.87;97263.88;5030101;28;20037;-68
2023/11/29 06:15:19;;;;;;;4.13;0.93;;;;;;;6.61;32.80;97262.72;5028100;28;20033;-68
2023/11/29 06:17:45;;;;;;;6.28;1.55;;;;;;;6.45;33.97;97276.34;5014194;28;20570;-67
2023/11/29 06:20:18;;;;;;;4.40;1.20;;;;;;;6.54;33.56;97282.38;5035331;28;20058;-68
2023/11/29 06:22:43;;;;;;;5.13;1.80;;;;;;;6.46;33.72;97285.72;5028428;28;20138;-67
2023/11/29 06:25:08;;;;;;;6.50;1.60;;;;;;;6.43;33.77;97288.59;5012268;28;20555;-69
2023/11/29 06:27:35;;;;;;;7.40;2.00;;;;;;;6.35;34.61;97280.78;5027851;28;20029;-67
2023/11/29 06:30:00;;;;;;;11.85;1.90;;;;;;;6.12;34.86;97280.44;5032585;28;20095;-70
2023/11/29 06:32:26;;;;;;;6.82;1.30;;;;;;;5.92;35.16;97290.88;5024760;28;20814;-68
2023/11/29 06:34:52;;;;;;;10.65;1.58;;;;;;;5.82;36.13;97305.63;5025342;28;20029;-68
2023/11/29 06:37:20;;;;;;;9.68;1.45;;;;;;;5.80;36.53;97309.31;5028073;28;20476;-67
2023/11/29 06:39:48;;;;;;;10.48;1.65;;;;;;;5.44;35.93;97289.47;5022466;28;20079;-68
2023/11/29 06:42:14;;;;;;;13.30;2.15;;;;;;;5.54;36.55;97292.78;5015995;28;20029;-67
2023/11/29 06:44:40;;;;;;;9.85;2.50;;;;;;;5.42;37.33;97298.28;5027822;28;20786;-68
2023/11/29 06:47:08;;;;;;;12.60;1.80;;;;;;;5.35;37.82;97314.31;5044677;28;20035;-68
2023/11/29 06:49:33;;;;;;;14.45;1.60;;;;;;;5.44;38.69;97320.41;5027886;28;20083;-66
2023/11/29 06:51:59;;;;;;;13.23;2.40;;;;;;;5.34;38.79;97324.78;5033285;28;20151;-67
2023/11/29 06:54:25;;;;;;;12.95;2.13;;;;;;;5.29;38.97;97291.69;5012640;28;20082;-67
2023/11/29 06:56:50;;;;;;;13.52;2.30;;;;;;;5.42;38.78;97329.22;5043382;28;20048;-67
2023/11/29 06:59:15;;;;;;;15.82;2.40;;;;;;;5.17;39.01;97316.84;5040492;28;20907;-67
2023/11/29 07:01:41;;;;;;;17.67;2.40;;;;;;;5.07;39.13;97323.00;5021547;28;20499;-66
2023/11/29 07:04:08;;;;;;;14.40;2.25;;;;;;;5.39;39.21;97366.41;5044481;28;20072;-67
2023/11/29 07:06:33;;;;;;;9.00;1.98;;;;;;;5.20;39.30;97356.97;5027015;28;20036;-66
2023/11/29 07:08:59;;;;;;;5.82;1.65;;;;;;;5.07;40.03;97364.22;5027630;28;20032;-66
2023/11/29 07:11:24;;;;;;;7.90;1.70;;;;;;;5.05;40.25;97359.19;5045740;28;20029;-67
2023/11/29 07:13:50;;;;;;;9.55;1.85;;;;;;;5.21;40.63;97366.34;5026323;28;20025;-66
2023/11/29 07:16:20;;;;;;;7.75;1.80;;;;;;;5.15;41.28;97372.06;5015981;28;20547;-67
2023/11/29 07:18:46;;;;;;;6.22;1.92;;;;;;;4.99;41.79;97373.44;5028688;28;20036;-66
2023/11/29 07:21:11;;;;;;;9.10;1.92;;;;;;;5.03;41.95;97388.63;5018606;28;20037;-67
2023/11/29 07:23:37;;;;;;;4.57;1.35;;;;;;;4.94;42.51;97385.94;5029846;28;20464;-66
2023/11/29 07:26:04;;;;;;;10.05;1.77;;;;;;;4.87;42.87;97387.44;5012043;28;20033;-66
2023/11/29 07:28:30;;;;;;;8.02;1.38;;;;;;;4.71;42.99;97387.19;5028126;28;20035;-66
2023/11/29 07:30:56;;;;;;;9.55;2.53;;;;;;;4.55;43.67;97398.88;5027078;28;20029;-67
2023/11/29 07:33:21;;;;;;;9.50;2.70;;;;;;;4.49;43.33;97349.69;5011681;28;20030;-66
2023/11/29 07:35:47;;;;;;;9.32;3.10;;;;;;;4.59;43.81;97368.50;5028559;28;20046;-67
2023/11/29 07:38:17;;;;;;;9.70;2.80;;;;;;;4.71;44.56;97405.22;5025724;28;20037;-66
2023/11/29 07:40:47;;;;;;;11.13;3.08;;;;;;;4.54;43.39;97406.72;5026693;28;20033;-64
2023/11/29 07:43:15;;;;;;;9.80;2.50;;;;;;;4.40;43.82;97403.63;5028180;28;20032;-65
2023/11/29 07:45:41;;;;;;;9.32;2.72;;;;;;;4.46;45.36;97417.72;5040487;28;20028;-69
2023/11/29 07:48:07;;;;;;;6.10;2.75;;;;;;;4.30;44.76;97407.94;5017367;28;20143;-65
2023/11/29 07:50:32;;;;;;;10.55;2.90;;;;;;;4.27;45.37;97415.94;5023843;28;20673;-67
2023/11/29 07:52:58;;;;;;;8.77;3.10;;;;;;;4.33;45.40;97417.97;5031492;28;20099;-66
2023/11/29 07:55:25;;;;;;;10.13;3.08;;;;;;;4.39;45.73;97422.56;5021734;28;20029;-67
2023/11/29 07:57:51;;;;;;;13.88;4.25;;;;;;;4.41;45.13;97425.00;5012051;28;20037;-65
2023/11/29 08:00:17;;;;;;;13.88;3.97;;;;;;;4.38;44.88;97428.69;5026980;28;20048;-66
2023/11/29 08:02:42;;;;;;;17.30;4.28;;;;;;;4.08;44.77;97387.63;5012213;28;20035;-68
2023/11/29 08:05:08;;;;;;;19.77;4.53;;;;;;;4.42;45.75;97435.19;5045278;28;20052;-66
2023/11/29 08:07:37;;;;;;;13.02;4.18;;;;;;;4.44;46.52;97440.19;5044478;28;20043;-69
2023/11/29 08:10:07;;;;;;;13.35;4.38;;;;;;;4.46;46.73;97425.44;5028174;28;20064;-67
2023/11/29 08:12:32;;;;;;;14.60;4.20;;;;;;;4.37;46.59;97428.81;5017828;28;20032;-69
2023/11/29 08:14:58;;;;;;;12.32;4.28;;;;;;;4.29;47.50;97429.50;5032404;28;20797;-66
2023/11/29 08:17:23;;;;;;;17.75;7.57;;;;;;;4.05;46.05;97440.13;5033941;28;20134;-66
2023/11/29 08:19:48;;;;;;;18.95;6.90;;;;;;;4.22;46.93;97430.97;5036703;28;20278;-66
2023/11/29 08:22:14;;;;;;;7.25;3.80;;;;;;;4.30;45.32;97425.94;5030040;28;20040;-66
2023/11/29 08:24:43;;;;;;;4.88;1.45;;;;;;;4.59;44.84;97438.03;5011388;28;20033;-66
2023/11/29 08:27:09;;;;;;;4.40;1.15;;;;;;;4.40;43.68;97400.25;5027834;28;20548;-65
2023/11/29 08:29:34;;;;;;;7.78;2.83;;;;;;;4.78;43.66;97450.91;5026127;28;20119;-68
2023/11/29 08:31:59;;;;;;;6.32;1.80;;;;;;;4.91;44.41;97453.22;5027725;28;20025;-68
2023/11/29 08:34:25;;;;;;;3.88;1.40;;;;;;;5.03;43.54;97453.03;5028716;28;20059;-67
2023/11/29 08:36:50;;;;;;;5.53;2.00;;;;;;;5.00;43.03;97448.97;5028082;28;20029;-65
2023/11/29 08:39:16;;;;;;;5.30;1.92;;;;;;;4.87;43.10;97423.50;5025188;28;20041;-65
2023/11/29 08:41:43;;;;;;;11.52;2.83;;;;;;;5.19;42.61;97459.25;5027341;28;20266;-64
2023/11/29 08:44:09;;;;;;;6.18;2.70;;;;;;;5.26;44.14;97456.94;5020093;28;20074;-66
2023/11/29 08:46:34;;;;;;;6.97;2.50;;;;;;;5.41;44.57;97474.53;5028146;28;20404;-68
2023/11/29 08:49:03;;;;;;;6.03;1.63;;;;;;;5.38;44.92;97466.16;5028615;28;20043;-65
2023/11/29 08:51:31;;;;;;;4.47;1.30;;;;;;;5.36;45.33;97469.78;5024733;28;20032;-67
2023/11/29 08:53:58;;;;;;;6.22;1.63;;;;;;;5.26;45.26;97471.59;5026454;28;20043;-67
2023/11/29 08:56:23;;;;;;;10.27;2.20;;;;;;;4.99;46.21;97424.97;5023360;28;20024;-66
2023/11/29 08:58:49;;;;;;;9.60;2.10;;;;;;;5.24;47.33;97476.06;5024583;28;20029;-65
2023/11/29 09:01:20;;;;;;;8.30;1.92;;;;;;;5.01;45.89;97442.88;5026515;28;20083;-65
2023/11/29 09:03:48;;;;;;;7.95;1.98;;;;;;;5.23;45.51;97482.97;5027748;28;20056;-66
2023/11/29 09:06:15;;;;;;;6.45;1.95;;;;;;;4.89;45.47;97439.66;5023933;28;20585;-64
2023/11/29 09:08:42;;;;;;;10.23;1.92;;;;;;;5.22;45.63;97493.44;5043583;28;20029;-67
2023/11/29 09:11:08;;;;;;;5.43;1.50;;;;;;;5.21;43.33;97484.88;5025269;28;20060;-67
2023/11/29 09:13:34;;;;;;;4.97;1.52;;;;;;;5.22;42.76;97478.78;5025213;28;20536;-65
2023/11/29 09:16:00;;;;;;;4.47;1.40;;;;;;;5.34;43.48;97494.91;5040628;28;20043;-65
2023/11/29 09:18:26;;;;;;;5.88;1.80;;;;;;;5.35;44.02;97492.19;5000489;28;20510;-65
2023/11/29 09:20:52;;;;;;;7.00;1.55;;;;;;;5.42;43.04;97495.03;5003561;28;20305;-66
2023/11/29 09:23:17;;;;;;;5.20;1.90;;;;;;;5.38;44.77;97497.06;5022573;28;20549;-66
2023/11/29 09:25:48;;;;;;;6.15;2.75;;;;;;;5.37;43.86;97507.53;5044670;28;20586;-67
2023/11/29 09:28:16;;;;;;;7.35;2.08;;;;;;;5.10;43.63;97467.00;5020657;28;20106;-67
2023/11/29 09:30:46;;;;;;;5.38;2.00;;;;;;;5.12;43.84;97501.97;5004368;28;20896;-66
2023/11/29 09:33:14;;;;;;;5.32;1.70;;;;;;;4.88;42.92;97456.03;5025863;28;20101;-64
2023/11/29 09:35:42;;;;;;;5.55;1.67;;;;;;;5.18;43.56;97509.19;5024380;28;20068;-66
2023/11/29 09:38:10;;;;;;;3.90;1.33;;;;;;;5.15;45.39;97503.50;5024901;28;20108;-65
2023/11/29 09:40:38;;;;;;;4.30;1.20;;;;;;;5.20;42.82;97509.84;5022680;28;20033;-65
2023/11/29 09:43:03;;;;;;;2.60;0.85;;;;;;;5.13;41.63;97506.19;5027657;28;20037;-65
2023/11/29 09:45:29;;;;;;;3.88;1.08;;;;;;;4.98;41.64;97456.84;5023724;28;20413;-67
2023/11/29 09:47:59;;;;;;;3.78;0.82;;;;;;;5.25;40.82;97495.72;5028773;28;20112;-65
2023/11/29 09:50:30;;;;;;;2.42;0.80;;;;;;;5.04;40.18;97446.94;5017944;28;20065;-63
2023/11/29 09:52:59;;;;;;;2.95;0.60;;;;;;;5.35;38.14;97499.13;5045444;28;20668;-64
2023/11/29 09:55:26;;;;;;;2.72;0.60;;;;;;;5.54;37.79;97495.66;5025567;28;20032;-66
2023/11/29 09:57:52;;;;;;;2.50;0.70;;;;;;;5.59;38.33;97499.44;5028478;28;20029;-65
2023/11/29 10:00:20;;;;;;;1.23;0.45;;;;;;;5.65;37.46;97487.75;5025297;28;20087;-66
2023/11/29 10:02:46;;;;;;;2.28;0.55;;;;;;;5.73;37.25;97493.03;5019960;28;20040;-65
2023/11/29 10:05:13;;;;;;;2.63;0.52;;;;;;;5.63;34.79;97456.13;5046159;28;20112;-66
2023/11/29 10:07:39;;;;;;;2.28;0.52;;;;;;;6.01;34.88;97485.34;5021598;28;20033;-65
2023/11/29 10:10:05;;;;;;;1.95;0.50;;;;;;;6.16;34.28;97498.56;5027596;28;20029;-65
2023/11/29 10:12:37;;;;;;;1.20;0.43;;;;;;;6.25;33.58;97494.31;4999576;28;20025;-67
2023/11/29 10:15:08;;;;;;;2.65;0.80;;;;;;;6.29;34.38;97490.50;5027511;28;20036;-65
2023/11/29 10:17:33;;;;;;;3.35;0.60;;;;;;;6.14;33.92;97451.44;5037374;28;20056;-65
2023/11/29 10:19:58;;;;;;;1.70;0.63;;;;;;;6.44;32.37;97488.22;5027024;28;20035;-66
2023/11/29 10:22:24;;;;;;;1.50;0.40;;;;;;;6.47;32.38;97481.00;5021506;28;20028;-66
2023/11/29 10:24:52;;;;;;;4.68;0.60;;;;;;;6.63;32.46;97488.09;5028988;28;20098;-65
2023/11/29 10:27:23;;;;;;;4.40;0.70;;;;;;;6.66;33.98;97482.66;5022761;28;20025;-65
2023/11/29 10:29:51;;;;;;;2.15;0.60;;;;;;;6.66;32.59;97461.16;5000461;28;20036;-66
2023/11/29 10:32:17;;;;;;;3.40;0.70;;;;;;;6.67;31.48;97473.91;5002667;28;20560;-65
2023/11/29 10:34:46;;;;;;;1.58;0.60;;;;;;;6.88;32.64;97467.63;5020560;28;20029;-66
2023/11/29 10:37:13;;;;;;;2.50;0.70;;;;;;;6.92;32.59;97464.59;5025484;28;20032;-67
2023/11/29 10:39:39;;;;;;;6.47;1.13;;;;;;;7.08;32.03;97463.94;5008072;28;20511;-66
2023/11/29 10:42:08;;;;;;;3.60;1.05;;;;;;;7.12;32.58;97444.56;5020482;28;20017;-64
2023/11/29 10:44:39;;;;;;;2.67;0.80;;;;;;;7.15;33.49;97448.59;5026601;28;20074;-67
2023/11/29 10:47:15;;;;;;;2.72;0.75;;;;;;;7.24;35.14;97444.31;5020581;28;20025;-67
2023/11/29 10:49:57;;;;;;;1.98;0.60;;;;;;;7.34;33.76;97455.38;5028471;28;20052;-66
2023/11/29 10:52:26;;;;;;;1.73;0.60;;;;;;;7.30;32.89;97449.69;5023959;28;20055;-65
2023/11/29 10:54:52;;;;;;;1.40;0.50;;;;;;;7.42;32.20;97450.22;5026413;28;20025;-65
2023/11/29 10:57:25;;;;;;;2.20;0.52;;;;;;;7.45;31.51;97434.41;5020117;28;20035;-65
2023/11/29 11:00:01;;;;;;;2.63;0.70;;;;;;;7.53;32.41;97443.19;5013750;28;20121;-68
2023/11/29 11:02:30;;;;;;;2.45;0.80;;;;;;;7.56;30.45;97433.34;5025179;28;20029;-65
2023/11/29 11:05:08;;;;;;;2.38;0.60;;;;;;;7.63;30.29;97436.09;5002414;28;20032;-66
2023/11/29 11:07:44;;;;;;;2.50;0.80;;;;;;;7.78;30.00;97433.78;5026909;28;20486;-66
2023/11/29 11:10:22;;;;;;;4.18;0.90;;;;;;;7.85;30.03;97438.16;5019843;28;20120;-67
2023/11/29 11:12:51;;;;;;;4.18;1.00;;;;;;;7.85;29.84;97432.19;5021529;28;20144;-67
2023/11/29 11:15:24;;;;;;;3.80;1.20;;;;;;;7.67;29.09;97404.59;5022190;28;20545;-67
2023/11/29 11:18:02;;;;;;;3.58;0.95;;;;;;;8.02;28.30;97451.16;5006646;28;20139;-65
2023/11/29 11:20:55;;;;;;;3.42;1.15;;;;;;;8.09;28.56;97445.19;5024161;28;20395;-66
2023/11/29 11:23:27;;;;;;;4.20;1.33;;;;;;;8.17;28.77;97447.00;5025135;28;20370;-68
2023/11/29 11:26:00;;;;;;;3.65;1.00;;;;;;;8.08;27.95;97419.47;5033561;28;20035;-66
2023/11/29 11:28:28;;;;;;;3.50;0.95;;;;;;;8.22;28.64;97449.91;5024740;28;20123;-65
2023/11/29 11:30:54;;;;;;;2.88;0.85;;;;;;;8.07;28.78;97407.50;5014507;28;21047;-65
2023/11/29 11:33:20;;;;;;;2.60;0.80;;;;;;;8.25;29.21;97435.84;5025872;28;20299;-66
2023/11/29 11:35:45;;;;;;;3.60;1.00;;;;;;;8.33;27.05;97435.88;5021412;28;20304;-67
2023/11/29 11:38:11;;;;;;;3.97;1.10;;;;;;;8.15;27.40;97404.09;4999879;28;20052;-67
2023/11/29 11:40:40;;;;;;;2.67;0.90;;;;;;;8.34;27.47;97434.91;5004962;28;20132;-66